sensor_id;sensor_type;location;lat;lon;timestamp;temperature;humidity
53045;DHT22;38930;52.766;6.884;2023-05-07T00:01:42;14.00;99.90
53045;DHT22;38930;52.766;6.884;2023-05-07T00:04:08;13.80;99.90
53045;DHT22;38930;52.766;6.884;2023-05-07T00:06:33;13.90;99.90
53045;DHT22;38930;52.766;6.884;2023-05-07T00:08:59;13.80;99.90
53045;DHT22;38930;52.766;6.884;2023-05-07T00:11:27;13.80;99.90
53045;DHT22;38930;52.766;6.884;2023-05-07T00:13:52;13.80;99.90
53045;DHT22;38930;52.766;6.884;2023-05-07T00:16:18;13.80;99.90
53045;DHT22;38930;52.766;6.884;2023-05-07T00:18:44;13.70;99.90
53045;DHT22;38930;52.766;6.884;2023-05-07T00:21:10;13.70;99.90
53045;DHT22;38930;52.766;6.884;2023-05-07T00:23:36;13.60;99.90
53045;DHT22;38930;52.766;6.884;2023-05-07T00:26:02;14.00;99.90
53045;DHT22;38930;52.766;6.884;2023-05-07T00:28:27;13.60;99.90
53045;DHT22;38930;52.766;6.884;2023-05-07T00:30:53;13.50;99.90
53045;DHT22;38930;52.766;6.884;2023-05-07T00:33:18;13.60;99.90
53045;DHT22;38930;52.766;6.884;2023-05-07T00:35:46;13.50;99.90
53045;DHT22;38930;52.766;6.884;2023-05-07T00:38:12;13.50;99.90
53045;DHT22;38930;52.766;6.884;2023-05-07T00:40:37;13.40;99.90
53045;DHT22;38930;52.766;6.884;2023-05-07T00:43:03;13.40;99.90
53045;DHT22;38930;52.766;6.884;2023-05-07T00:45:29;13.40;99.90
53045;DHT22;38930;52.766;6.884;2023-05-07T00:47:58;13.30;99.90
53045;DHT22;38930;52.766;6.884;2023-05-07T00:50:25;13.40;99.90
53045;DHT22;38930;52.766;6.884;2023-05-07T00:52:51;13.20;99.90
53045;DHT22;38930;52.766;6.884;2023-05-07T00:55:17;13.10;99.90
53045;DHT22;38930;52.766;6.884;2023-05-07T00:57:43;13.10;99.90
53045;DHT22;38930;52.766;6.884;2023-05-07T01:00:10;13.00;99.90
53045;DHT22;38930;52.766;6.884;2023-05-07T01:02:38;12.90;99.90
53045;DHT22;38930;52.766;6.884;2023-05-07T01:05:05;12.80;99.90
53045;DHT22;38930;52.766;6.884;2023-05-07T01:07:32;12.80;99.90
53045;DHT22;38930;52.766;6.884;2023-05-07T01:09:58;12.70;99.90
53045;DHT22;38930;52.766;6.884;2023-05-07T01:12:25;12.70;99.90
53045;DHT22;38930;52.766;6.884;2023-05-07T01:14:52;12.60;99.90
53045;DHT22;38930;52.766;6.884;2023-05-07T01:17:17;12.60;99.90
53045;DHT22;38930;52.766;6.884;2023-05-07T01:19:43;12.60;99.90
53045;DHT22;38930;52.766;6.884;2023-05-07T01:22:10;12.50;99.90
53045;DHT22;38930;52.766;6.884;2023-05-07T01:24:40;12.50;99.90
53045;DHT22;38930;52.766;6.884;2023-05-07T01:27:06;12.40;99.90
53045;DHT22;38930;52.766;6.884;2023-05-07T01:29:32;12.40;99.90
53045;DHT22;38930;52.766;6.884;2023-05-07T01:31:59;12.40;99.90
53045;DHT22;38930;52.766;6.884;2023-05-07T01:34:28;12.40;99.90
53045;DHT22;38930;52.766;6.884;2023-05-07T01:36:55;12.30;99.90
53045;DHT22;38930;52.766;6.884;2023-05-07T01:39:27;12.60;99.90
53045;DHT22;38930;52.766;6.884;2023-05-07T01:41:55;12.30;99.90
53045;DHT22;38930;52.766;6.884;2023-05-07T01:44:22;12.30;99.90
53045;DHT22;38930;52.766;6.884;2023-05-07T01:46:48;12.20;99.90
53045;DHT22;38930;52.766;6.884;2023-05-07T01:49:14;12.20;99.90
53045;DHT22;38930;52.766;6.884;2023-05-07T01:51:40;12.20;99.90
53045;DHT22;38930;52.766;6.884;2023-05-07T01:54:06;12.20;99.90
53045;DHT22;38930;52.766;6.884;2023-05-07T01:56:33;12.20;99.90
53045;DHT22;38930;52.766;6.884;2023-05-07T01:58:59;12.10;99.90
53045;DHT22;38930;52.766;6.884;2023-05-07T02:01:24;12.20;99.90
53045;DHT22;38930;52.766;6.884;2023-05-07T02:03:50;12.00;99.90
53045;DHT22;38930;52.766;6.884;2023-05-07T02:06:16;12.00;99.90
53045;DHT22;38930;52.766;6.884;2023-05-07T02:08:41;12.10;99.90
53045;DHT22;38930;52.766;6.884;2023-05-07T02:11:07;11.90;99.90
53045;DHT22;38930;52.766;6.884;2023-05-07T02:13:34;11.90;99.90
53045;DHT22;38930;52.766;6.884;2023-05-07T02:16:00;11.90;99.90
53045;DHT22;38930;52.766;6.884;2023-05-07T02:18:26;11.90;99.90
53045;DHT22;38930;52.766;6.884;2023-05-07T02:20:51;11.90;99.90
53045;DHT22;38930;52.766;6.884;2023-05-07T02:23:17;11.70;99.90
53045;DHT22;38930;52.766;6.884;2023-05-07T02:25:42;11.80;99.90
53045;DHT22;38930;52.766;6.884;2023-05-07T02:28:08;12.30;99.90
53045;DHT22;38930;52.766;6.884;2023-05-07T02:30:34;11.80;99.90
53045;DHT22;38930;52.766;6.884;2023-05-07T02:32:59;11.70;99.90
53045;DHT22;38930;52.766;6.884;2023-05-07T02:35:25;11.70;99.90
53045;DHT22;38930;52.766;6.884;2023-05-07T02:37:51;11.70;99.90
53045;DHT22;38930;52.766;6.884;2023-05-07T02:40:17;11.60;99.90
53045;DHT22;38930;52.766;6.884;2023-05-07T02:42:42;11.60;99.90
53045;DHT22;38930;52.766;6.884;2023-05-07T02:45:08;11.60;99.90
53045;DHT22;38930;52.766;6.884;2023-05-07T02:47:34;11.60;99.90
53045;DHT22;38930;52.766;6.884;2023-05-07T02:50:00;11.60;99.90
53045;DHT22;38930;52.766;6.884;2023-05-07T02:52:26;11.60;99.90
53045;DHT22;38930;52.766;6.884;2023-05-07T02:54:51;12.00;99.90
53045;DHT22;38930;52.766;6.884;2023-05-07T02:57:17;11.50;99.90
53045;DHT22;38930;52.766;6.884;2023-05-07T02:59:43;11.50;99.90
53045;DHT22;38930;52.766;6.884;2023-05-07T03:02:08;11.50;99.90
53045;DHT22;38930;52.766;6.884;2023-05-07T03:04:34;11.50;99.90
53045;DHT22;38930;52.766;6.884;2023-05-07T03:06:59;11.50;99.90
53045;DHT22;38930;52.766;6.884;2023-05-07T03:09:25;11.40;99.90
53045;DHT22;38930;52.766;6.884;2023-05-07T03:11:51;11.50;99.90
53045;DHT22;38930;52.766;6.884;2023-05-07T03:14:17;11.40;99.90
53045;DHT22;38930;52.766;6.884;2023-05-07T03:16:42;11.40;99.90
53045;DHT22;38930;52.766;6.884;2023-05-07T03:19:08;11.70;99.90
53045;DHT22;38930;52.766;6.884;2023-05-07T03:21:33;11.40;99.90
53045;DHT22;38930;52.766;6.884;2023-05-07T03:23:59;11.40;99.90
53045;DHT22;38930;52.766;6.884;2023-05-07T03:26:25;11.40;99.90
53045;DHT22;38930;52.766;6.884;2023-05-07T03:28:51;11.40;99.90
53045;DHT22;38930;52.766;6.884;2023-05-07T03:31:17;12.20;99.90
53045;DHT22;38930;52.766;6.884;2023-05-07T03:33:54;11.40;99.90
53045;DHT22;38930;52.766;6.884;2023-05-07T03:36:20;11.40;99.90
53045;DHT22;38930;52.766;6.884;2023-05-07T03:38:46;11.40;99.90
53045;DHT22;38930;52.766;6.884;2023-05-07T03:41:12;11.40;99.90
53045;DHT22;38930;52.766;6.884;2023-05-07T03:43:37;11.40;99.90
53045;DHT22;38930;52.766;6.884;2023-05-07T03:46:03;11.40;99.90
53045;DHT22;38930;52.766;6.884;2023-05-07T03:48:29;11.40;99.90
53045;DHT22;38930;52.766;6.884;2023-05-07T03:50:55;11.40;99.90
53045;DHT22;38930;52.766;6.884;2023-05-07T03:53:21;11.80;99.90
53045;DHT22;38930;52.766;6.884;2023-05-07T03:55:46;11.40;99.90
53045;DHT22;38930;52.766;6.884;2023-05-07T03:58:12;11.90;99.90
53045;DHT22;38930;52.766;6.884;2023-05-07T04:00:37;11.40;99.90
53045;DHT22;38930;52.766;6.884;2023-05-07T04:03:05;11.40;99.90
53045;DHT22;38930;52.766;6.884;2023-05-07T04:05:31;11.30;99.90
53045;DHT22;38930;52.766;6.884;2023-05-07T04:07:58;11.30;99.90
53045;DHT22;38930;52.766;6.884;2023-05-07T04:10:24;11.40;99.90
53045;DHT22;38930;52.766;6.884;2023-05-07T04:12:49;11.30;99.90
53045;DHT22;38930;52.766;6.884;2023-05-07T04:15:15;11.30;99.90
53045;DHT22;38930;52.766;6.884;2023-05-07T04:17:40;11.30;99.90
53045;DHT22;38930;52.766;6.884;2023-05-07T04:20:09;11.40;99.90
53045;DHT22;38930;52.766;6.884;2023-05-07T04:22:36;11.40;99.90
53045;DHT22;38930;52.766;6.884;2023-05-07T04:25:02;11.30;99.90
53045;DHT22;38930;52.766;6.884;2023-05-07T04:27:28;11.40;99.90
53045;DHT22;38930;52.766;6.884;2023-05-07T04:29:53;11.50;99.90
53045;DHT22;38930;52.766;6.884;2023-05-07T04:32:21;11.30;99.90
53045;DHT22;38930;52.766;6.884;2023-05-07T04:34:47;11.40;99.90
53045;DHT22;38930;52.766;6.884;2023-05-07T04:37:13;11.90;99.90
53045;DHT22;38930;52.766;6.884;2023-05-07T04:39:38;11.30;99.90
53045;DHT22;38930;52.766;6.884;2023-05-07T04:42:04;11.30;99.90
53045;DHT22;38930;52.766;6.884;2023-05-07T04:44:32;11.30;99.90
53045;DHT22;38930;52.766;6.884;2023-05-07T04:46:58;11.40;99.90
53045;DHT22;38930;52.766;6.884;2023-05-07T04:49:24;11.40;99.90
53045;DHT22;38930;52.766;6.884;2023-05-07T04:51:50;11.40;99.90
53045;DHT22;38930;52.766;6.884;2023-05-07T04:54:15;11.40;99.90
53045;DHT22;38930;52.766;6.884;2023-05-07T04:56:41;11.40;99.90
53045;DHT22;38930;52.766;6.884;2023-05-07T04:59:06;11.90;99.90
53045;DHT22;38930;52.766;6.884;2023-05-07T05:01:33;11.40;99.90
53045;DHT22;38930;52.766;6.884;2023-05-07T05:03:58;11.40;99.90
53045;DHT22;38930;52.766;6.884;2023-05-07T05:06:25;11.40;99.90
53045;DHT22;38930;52.766;6.884;2023-05-07T05:08:51;11.50;99.90
53045;DHT22;38930;52.766;6.884;2023-05-07T05:11:17;11.40;99.90
53045;DHT22;38930;52.766;6.884;2023-05-07T05:13:43;11.50;99.90
53045;DHT22;38930;52.766;6.884;2023-05-07T05:16:08;11.40;99.90
53045;DHT22;38930;52.766;6.884;2023-05-07T05:18:34;11.50;99.90
53045;DHT22;38930;52.766;6.884;2023-05-07T05:21:00;11.50;99.90
53045;DHT22;38930;52.766;6.884;2023-05-07T05:23:25;11.60;99.90
53045;DHT22;38930;52.766;6.884;2023-05-07T05:25:56;11.60;99.90
53045;DHT22;38930;52.766;6.884;2023-05-07T05:28:22;11.60;99.90
53045;DHT22;38930;52.766;6.884;2023-05-07T05:30:49;11.70;99.90
53045;DHT22;38930;52.766;6.884;2023-05-07T05:33:14;11.70;99.90
53045;DHT22;38930;52.766;6.884;2023-05-07T05:35:40;11.80;99.90
53045;DHT22;38930;52.766;6.884;2023-05-07T05:38:05;11.90;99.90
53045;DHT22;38930;52.766;6.884;2023-05-07T05:40:31;11.80;99.90
53045;DHT22;38930;52.766;6.884;2023-05-07T05:42:57;11.80;99.90
53045;DHT22;38930;52.766;6.884;2023-05-07T05:45:23;11.90;99.90
53045;DHT22;38930;52.766;6.884;2023-05-07T05:47:48;11.90;99.90
53045;DHT22;38930;52.766;6.884;2023-05-07T05:50:14;11.90;99.90
53045;DHT22;38930;52.766;6.884;2023-05-07T05:52:40;12.10;99.90
53045;DHT22;38930;52.766;6.884;2023-05-07T05:55:06;12.00;99.90
53045;DHT22;38930;52.766;6.884;2023-05-07T05:57:32;12.00;99.90
53045;DHT22;38930;52.766;6.884;2023-05-07T05:59:57;12.20;99.90
53045;DHT22;38930;52.766;6.884;2023-05-07T06:02:26;12.00;99.90
53045;DHT22;38930;52.766;6.884;2023-05-07T06:04:52;12.10;99.90
53045;DHT22;38930;52.766;6.884;2023-05-07T06:07:17;12.20;99.90
53045;DHT22;38930;52.766;6.884;2023-05-07T06:09:43;12.30;99.90
53045;DHT22;38930;52.766;6.884;2023-05-07T06:12:09;12.30;99.90
53045;DHT22;38930;52.766;6.884;2023-05-07T06:14:35;12.30;99.90
53045;DHT22;38930;52.766;6.884;2023-05-07T06:17:00;12.30;99.90
53045;DHT22;38930;52.766;6.884;2023-05-07T06:19:26;12.40;99.90
53045;DHT22;38930;52.766;6.884;2023-05-07T06:21:54;12.40;99.90
53045;DHT22;38930;52.766;6.884;2023-05-07T06:24:22;12.30;99.90
53045;DHT22;38930;52.766;6.884;2023-05-07T06:26:47;12.30;99.90
53045;DHT22;38930;52.766;6.884;2023-05-07T06:29:13;12.30;99.90
53045;DHT22;38930;52.766;6.884;2023-05-07T06:31:39;12.30;99.90
53045;DHT22;38930;52.766;6.884;2023-05-07T06:34:07;12.30;99.90
53045;DHT22;38930;52.766;6.884;2023-05-07T06:36:33;12.30;99.90
53045;DHT22;38930;52.766;6.884;2023-05-07T06:39:02;12.30;99.90
53045;DHT22;38930;52.766;6.884;2023-05-07T06:41:27;12.40;99.90
53045;DHT22;38930;52.766;6.884;2023-05-07T06:43:53;12.40;99.90
53045;DHT22;38930;52.766;6.884;2023-05-07T06:46:18;12.40;99.90
53045;DHT22;38930;52.766;6.884;2023-05-07T06:48:44;12.50;99.90
53045;DHT22;38930;52.766;6.884;2023-05-07T06:51:10;12.50;99.90
53045;DHT22;38930;52.766;6.884;2023-05-07T06:53:35;12.50;99.90
53045;DHT22;38930;52.766;6.884;2023-05-07T06:56:01;12.60;99.90
53045;DHT22;38930;52.766;6.884;2023-05-07T06:58:26;12.80;99.90
53045;DHT22;38930;52.766;6.884;2023-05-07T07:00:52;12.80;99.90
53045;DHT22;38930;52.766;6.884;2023-05-07T07:03:17;12.80;99.90
53045;DHT22;38930;52.766;6.884;2023-05-07T07:05:43;12.80;99.90
53045;DHT22;38930;52.766;6.884;2023-05-07T07:08:10;12.80;99.90
53045;DHT22;38930;52.766;6.884;2023-05-07T07:10:35;12.80;99.90
53045;DHT22;38930;52.766;6.884;2023-05-07T07:13:01;12.80;99.90
53045;DHT22;38930;52.766;6.884;2023-05-07T07:15:27;12.90;99.90
53045;DHT22;38930;52.766;6.884;2023-05-07T07:17:52;12.80;99.90
53045;DHT22;38930;52.766;6.884;2023-05-07T07:20:18;12.80;99.90
53045;DHT22;38930;52.766;6.884;2023-05-07T07:22:43;12.80;99.90
53045;DHT22;38930;52.766;6.884;2023-05-07T07:25:09;12.80;99.90
53045;DHT22;38930;52.766;6.884;2023-05-07T07:27:36;13.00;99.90
53045;DHT22;38930;52.766;6.884;2023-05-07T07:30:02;12.90;99.90
53045;DHT22;38930;52.766;6.884;2023-05-07T07:32:27;13.00;99.90
53045;DHT22;38930;52.766;6.884;2023-05-07T07:34:53;13.10;99.90
53045;DHT22;38930;52.766;6.884;2023-05-07T07:37:19;13.30;99.90
53045;DHT22;38930;52.766;6.884;2023-05-07T07:39:44;13.40;99.90
53045;DHT22;38930;52.766;6.884;2023-05-07T07:42:10;13.60;99.90
53045;DHT22;38930;52.766;6.884;2023-05-07T07:44:36;13.80;99.90
53045;DHT22;38930;52.766;6.884;2023-05-07T07:47:01;14.10;99.90
53045;DHT22;38930;52.766;6.884;2023-05-07T07:49:27;14.10;99.90
53045;DHT22;38930;52.766;6.884;2023-05-07T07:51:52;14.20;99.90
53045;DHT22;38930;52.766;6.884;2023-05-07T07:54:18;14.20;99.90
53045;DHT22;38930;52.766;6.884;2023-05-07T07:56:44;14.20;99.90
53045;DHT22;38930;52.766;6.884;2023-05-07T07:59:10;14.20;99.90
53045;DHT22;38930;52.766;6.884;2023-05-07T08:01:35;14.30;99.90
53045;DHT22;38930;52.766;6.884;2023-05-07T08:04:01;14.30;99.90
53045;DHT22;38930;52.766;6.884;2023-05-07T08:06:28;14.30;99.90
53045;DHT22;38930;52.766;6.884;2023-05-07T08:08:54;14.30;99.90
53045;DHT22;38930;52.766;6.884;2023-05-07T08:11:20;14.30;99.90
53045;DHT22;38930;52.766;6.884;2023-05-07T08:13:47;14.40;99.90
53045;DHT22;38930;52.766;6.884;2023-05-07T08:16:13;14.50;99.90
53045;DHT22;38930;52.766;6.884;2023-05-07T08:18:38;14.40;99.90
53045;DHT22;38930;52.766;6.884;2023-05-07T08:21:04;14.40;99.90
53045;DHT22;38930;52.766;6.884;2023-05-07T08:23:30;14.30;99.90
53045;DHT22;38930;52.766;6.884;2023-05-07T08:25:55;14.50;99.90
53045;DHT22;38930;52.766;6.884;2023-05-07T08:28:21;14.40;99.90
53045;DHT22;38930;52.766;6.884;2023-05-07T08:30:47;14.50;99.90
53045;DHT22;38930;52.766;6.884;2023-05-07T08:33:12;14.50;99.90
53045;DHT22;38930;52.766;6.884;2023-05-07T08:35:38;14.60;99.90
53045;DHT22;38930;52.766;6.884;2023-05-07T08:38:04;14.80;99.90
53045;DHT22;38930;52.766;6.884;2023-05-07T08:40:37;14.70;99.90
53045;DHT22;38930;52.766;6.884;2023-05-07T08:43:07;14.70;99.90
53045;DHT22;38930;52.766;6.884;2023-05-07T08:45:34;14.90;99.90
53045;DHT22;38930;52.766;6.884;2023-05-07T08:48:02;15.00;99.90
53045;DHT22;38930;52.766;6.884;2023-05-07T08:50:29;15.10;99.90
53045;DHT22;38930;52.766;6.884;2023-05-07T08:52:55;15.30;99.90
53045;DHT22;38930;52.766;6.884;2023-05-07T08:55:22;15.40;99.90
53045;DHT22;38930;52.766;6.884;2023-05-07T08:57:48;15.30;99.90
53045;DHT22;38930;52.766;6.884;2023-05-07T09:00:14;15.60;99.90
53045;DHT22;38930;52.766;6.884;2023-05-07T09:02:40;15.60;99.90
53045;DHT22;38930;52.766;6.884;2023-05-07T09:05:06;16.10;99.90
53045;DHT22;38930;52.766;6.884;2023-05-07T09:07:32;15.80;99.90
53045;DHT22;38930;52.766;6.884;2023-05-07T09:09:57;16.00;99.90
53045;DHT22;38930;52.766;6.884;2023-05-07T09:12:23;16.00;99.90
53045;DHT22;38930;52.766;6.884;2023-05-07T09:14:49;16.40;99.90
53045;DHT22;38930;52.766;6.884;2023-05-07T09:17:16;16.60;99.90
53045;DHT22;38930;52.766;6.884;2023-05-07T09:19:46;16.80;99.90
53045;DHT22;38930;52.766;6.884;2023-05-07T09:22:12;16.70;99.90
53045;DHT22;38930;52.766;6.884;2023-05-07T09:24:38;16.80;99.90
53045;DHT22;38930;52.766;6.884;2023-05-07T09:27:07;16.80;99.90
53045;DHT22;38930;52.766;6.884;2023-05-07T09:29:35;16.80;99.90
53045;DHT22;38930;52.766;6.884;2023-05-07T09:32:02;16.80;99.90
53045;DHT22;38930;52.766;6.884;2023-05-07T09:34:29;16.90;99.90
53045;DHT22;38930;52.766;6.884;2023-05-07T09:36:55;16.90;99.90
53045;DHT22;38930;52.766;6.884;2023-05-07T09:39:23;17.20;99.90
53045;DHT22;38930;52.766;6.884;2023-05-07T09:41:48;17.30;99.90
53045;DHT22;38930;52.766;6.884;2023-05-07T09:44:15;17.40;99.90
53045;DHT22;38930;52.766;6.884;2023-05-07T09:46:43;17.50;99.90
53045;DHT22;38930;52.766;6.884;2023-05-07T09:49:22;17.80;99.90
53045;DHT22;38930;52.766;6.884;2023-05-07T09:51:50;17.70;99.90
53045;DHT22;38930;52.766;6.884;2023-05-07T09:54:17;17.60;99.90
53045;DHT22;38930;52.766;6.884;2023-05-07T09:56:47;17.60;99.90
53045;DHT22;38930;52.766;6.884;2023-05-07T09:59:15;17.70;99.90
53045;DHT22;38930;52.766;6.884;2023-05-07T10:01:42;17.70;99.90
53045;DHT22;38930;52.766;6.884;2023-05-07T10:04:08;17.90;99.90
53045;DHT22;38930;52.766;6.884;2023-05-07T10:06:35;18.10;99.90
53045;DHT22;38930;52.766;6.884;2023-05-07T10:09:02;18.10;99.90
53045;DHT22;38930;52.766;6.884;2023-05-07T10:11:27;18.30;99.90
53045;DHT22;38930;52.766;6.884;2023-05-07T10:13:53;18.20;99.90
53045;DHT22;38930;52.766;6.884;2023-05-07T10:16:20;18.10;99.90
53045;DHT22;38930;52.766;6.884;2023-05-07T10:18:46;18.20;99.90
53045;DHT22;38930;52.766;6.884;2023-05-07T10:21:20;18.10;99.90
53045;DHT22;38930;52.766;6.884;2023-05-07T10:23:49;18.30;99.90
53045;DHT22;38930;52.766;6.884;2023-05-07T10:26:17;18.60;99.90
53045;DHT22;38930;52.766;6.884;2023-05-07T10:28:46;18.80;99.90
53045;DHT22;38930;52.766;6.884;2023-05-07T10:34:29;19.30;99.90
53045;DHT22;38930;52.766;6.884;2023-05-07T10:36:58;19.40;99.90
53045;DHT22;38930;52.766;6.884;2023-05-07T10:39:24;19.30;99.90
53045;DHT22;38930;52.766;6.884;2023-05-07T10:41:50;19.20;99.90
53045;DHT22;38930;52.766;6.884;2023-05-07T10:44:26;19.20;99.90
53045;DHT22;38930;52.766;6.884;2023-05-07T10:47:08;18.90;99.90
53045;DHT22;38930;52.766;6.884;2023-05-07T10:52:20;19.10;99.90
53045;DHT22;38930;52.766;6.884;2023-05-07T10:54:47;19.10;99.90
53045;DHT22;38930;52.766;6.884;2023-05-07T10:59:56;19.40;99.90
53045;DHT22;38930;52.766;6.884;2023-05-07T11:02:22;19.60;99.90
53045;DHT22;38930;52.766;6.884;2023-05-07T11:05:19;19.60;99.90
53045;DHT22;38930;52.766;6.884;2023-05-07T11:07:55;19.60;99.90
53045;DHT22;38930;52.766;6.884;2023-05-07T11:10:22;19.70;99.90
53045;DHT22;38930;52.766;6.884;2023-05-07T11:12:52;19.50;99.90
53045;DHT22;38930;52.766;6.884;2023-05-07T11:15:35;19.50;99.90
53045;DHT22;38930;52.766;6.884;2023-05-07T11:18:01;19.50;99.90
53045;DHT22;38930;52.766;6.884;2023-05-07T11:20:51;19.40;99.90
53045;DHT22;38930;52.766;6.884;2023-05-07T11:28:38;19.80;99.90
53045;DHT22;38930;52.766;6.884;2023-05-07T11:31:04;19.90;99.90
53045;DHT22;38930;52.766;6.884;2023-05-07T11:33:33;20.00;99.90
53045;DHT22;38930;52.766;6.884;2023-05-07T11:36:00;20.10;99.90
53045;DHT22;38930;52.766;6.884;2023-05-07T11:38:28;20.00;99.90
53045;DHT22;38930;52.766;6.884;2023-05-07T11:40:56;20.00;99.90
53045;DHT22;38930;52.766;6.884;2023-05-07T11:43:22;19.90;99.90
53045;DHT22;38930;52.766;6.884;2023-05-07T11:45:48;19.80;99.90
53045;DHT22;38930;52.766;6.884;2023-05-07T11:48:15;19.90;99.90
53045;DHT22;38930;52.766;6.884;2023-05-07T11:50:51;19.90;99.90
53045;DHT22;38930;52.766;6.884;2023-05-07T11:53:18;20.00;99.90
53045;DHT22;38930;52.766;6.884;2023-05-07T11:55:44;20.00;99.90
53045;DHT22;38930;52.766;6.884;2023-05-07T11:58:11;19.90;99.90
53045;DHT22;38930;52.766;6.884;2023-05-07T12:00:37;19.90;99.90
53045;DHT22;38930;52.766;6.884;2023-05-07T12:03:04;20.00;99.90
53045;DHT22;38930;52.766;6.884;2023-05-07T12:05:30;20.10;99.90
53045;DHT22;38930;52.766;6.884;2023-05-07T12:07:57;20.00;99.90
53045;DHT22;38930;52.766;6.884;2023-05-07T12:10:22;20.00;99.90
53045;DHT22;38930;52.766;6.884;2023-05-07T12:12:50;20.00;99.90
53045;DHT22;38930;52.766;6.884;2023-05-07T12:15:16;19.80;99.90
53045;DHT22;38930;52.766;6.884;2023-05-07T12:17:43;19.70;99.90
53045;DHT22;38930;52.766;6.884;2023-05-07T12:20:09;19.70;99.90
53045;DHT22;38930;52.766;6.884;2023-05-07T12:22:35;19.60;99.90
53045;DHT22;38930;52.766;6.884;2023-05-07T12:25:01;19.70;99.90
53045;DHT22;38930;52.766;6.884;2023-05-07T12:27:28;19.80;99.90
53045;DHT22;38930;52.766;6.884;2023-05-07T12:29:53;19.80;99.90
53045;DHT22;38930;52.766;6.884;2023-05-07T12:32:20;19.80;99.90
53045;DHT22;38930;52.766;6.884;2023-05-07T12:34:49;19.80;99.90
53045;DHT22;38930;52.766;6.884;2023-05-07T12:37:15;19.80;99.90
53045;DHT22;38930;52.766;6.884;2023-05-07T12:39:47;19.90;99.90
53045;DHT22;38930;52.766;6.884;2023-05-07T12:42:15;20.00;99.90
53045;DHT22;38930;52.766;6.884;2023-05-07T12:44:45;20.10;99.90
53045;DHT22;38930;52.766;6.884;2023-05-07T12:47:11;20.10;99.90
53045;DHT22;38930;52.766;6.884;2023-05-07T12:49:37;20.20;99.90
53045;DHT22;38930;52.766;6.884;2023-05-07T12:52:04;20.10;99.90
53045;DHT22;38930;52.766;6.884;2023-05-07T12:54:31;20.10;99.90
53045;DHT22;38930;52.766;6.884;2023-05-07T12:57:01;20.00;99.90
53045;DHT22;38930;52.766;6.884;2023-05-07T12:59:33;20.00;99.90
53045;DHT22;38930;52.766;6.884;2023-05-07T13:01:59;20.00;99.90
53045;DHT22;38930;52.766;6.884;2023-05-07T13:04:25;19.90;99.90
53045;DHT22;38930;52.766;6.884;2023-05-07T13:06:51;19.80;99.90
53045;DHT22;38930;52.766;6.884;2023-05-07T13:09:16;19.70;99.90
53045;DHT22;38930;52.766;6.884;2023-05-07T13:11:42;19.60;99.90
53045;DHT22;38930;52.766;6.884;2023-05-07T13:14:07;19.40;99.90
53045;DHT22;38930;52.766;6.884;2023-05-07T13:16:33;19.20;99.90
53045;DHT22;38930;52.766;6.884;2023-05-07T13:18:59;19.20;99.90
53045;DHT22;38930;52.766;6.884;2023-05-07T13:21:24;19.20;99.90
53045;DHT22;38930;52.766;6.884;2023-05-07T13:23:50;19.20;99.90
53045;DHT22;38930;52.766;6.884;2023-05-07T13:26:16;19.20;99.90
53045;DHT22;38930;52.766;6.884;2023-05-07T13:28:41;19.20;99.90
53045;DHT22;38930;52.766;6.884;2023-05-07T13:31:08;19.20;99.90
53045;DHT22;38930;52.766;6.884;2023-05-07T13:33:34;19.30;99.90
53045;DHT22;38930;52.766;6.884;2023-05-07T13:36:01;19.30;99.90
53045;DHT22;38930;52.766;6.884;2023-05-07T13:38:27;19.40;99.90
53045;DHT22;38930;52.766;6.884;2023-05-07T13:40:53;19.40;99.90
53045;DHT22;38930;52.766;6.884;2023-05-07T13:43:19;19.60;99.90
53045;DHT22;38930;52.766;6.884;2023-05-07T13:45:44;19.70;99.90
53045;DHT22;38930;52.766;6.884;2023-05-07T13:48:10;19.90;99.90
53045;DHT22;38930;52.766;6.884;2023-05-07T13:50:35;20.20;99.90
53045;DHT22;38930;52.766;6.884;2023-05-07T13:53:01;20.30;99.90
53045;DHT22;38930;52.766;6.884;2023-05-07T13:55:29;20.40;99.90
53045;DHT22;38930;52.766;6.884;2023-05-07T13:57:59;20.50;99.90
53045;DHT22;38930;52.766;6.884;2023-05-07T14:00:26;20.60;99.90
53045;DHT22;38930;52.766;6.884;2023-05-07T14:02:52;20.50;99.90
53045;DHT22;38930;52.766;6.884;2023-05-07T14:05:18;20.50;99.90
53045;DHT22;38930;52.766;6.884;2023-05-07T14:07:44;20.40;99.90
53045;DHT22;38930;52.766;6.884;2023-05-07T14:10:10;20.20;99.90
53045;DHT22;38930;52.766;6.884;2023-05-07T14:12:36;20.20;99.90
53045;DHT22;38930;52.766;6.884;2023-05-07T14:15:02;20.10;99.90
53045;DHT22;38930;52.766;6.884;2023-05-07T14:17:28;20.00;99.90
53045;DHT22;38930;52.766;6.884;2023-05-07T14:19:54;19.90;99.90
53045;DHT22;38930;52.766;6.884;2023-05-07T14:22:23;19.80;99.90
53045;DHT22;38930;52.766;6.884;2023-05-07T14:24:49;19.80;99.90
53045;DHT22;38930;52.766;6.884;2023-05-07T14:27:16;19.70;99.90
53045;DHT22;38930;52.766;6.884;2023-05-07T14:29:41;19.60;99.90
53045;DHT22;38930;52.766;6.884;2023-05-07T14:32:07;19.50;99.90
53045;DHT22;38930;52.766;6.884;2023-05-07T14:34:33;19.40;99.90
53045;DHT22;38930;52.766;6.884;2023-05-07T14:37:00;19.30;99.90
53045;DHT22;38930;52.766;6.884;2023-05-07T14:39:25;19.20;99.90
53045;DHT22;38930;52.766;6.884;2023-05-07T14:41:51;19.10;99.90
53045;DHT22;38930;52.766;6.884;2023-05-07T14:44:17;19.00;99.90
53045;DHT22;38930;52.766;6.884;2023-05-07T14:46:43;18.90;99.90
53045;DHT22;38930;52.766;6.884;2023-05-07T14:49:08;18.80;99.90
53045;DHT22;38930;52.766;6.884;2023-05-07T14:51:45;18.70;99.90
53045;DHT22;38930;52.766;6.884;2023-05-07T14:54:12;18.60;99.90
53045;DHT22;38930;52.766;6.884;2023-05-07T14:56:38;18.60;99.90
53045;DHT22;38930;52.766;6.884;2023-05-07T14:59:04;18.30;99.90
53045;DHT22;38930;52.766;6.884;2023-05-07T15:01:29;18.30;99.90
53045;DHT22;38930;52.766;6.884;2023-05-07T15:03:55;18.30;99.90
53045;DHT22;38930;52.766;6.884;2023-05-07T15:06:21;18.30;99.90
53045;DHT22;38930;52.766;6.884;2023-05-07T15:08:47;18.30;99.90
53045;DHT22;38930;52.766;6.884;2023-05-07T15:11:14;18.40;99.90
53045;DHT22;38930;52.766;6.884;2023-05-07T15:13:42;18.50;99.90
53045;DHT22;38930;52.766;6.884;2023-05-07T15:16:08;18.60;99.90
53045;DHT22;38930;52.766;6.884;2023-05-07T15:18:33;18.60;99.90
53045;DHT22;38930;52.766;6.884;2023-05-07T15:20:59;18.60;99.90
53045;DHT22;38930;52.766;6.884;2023-05-07T15:23:25;18.70;99.90
53045;DHT22;38930;52.766;6.884;2023-05-07T15:25:52;18.80;99.90
53045;DHT22;38930;52.766;6.884;2023-05-07T15:28:18;18.80;99.90
53045;DHT22;38930;52.766;6.884;2023-05-07T15:30:43;18.90;99.90
53045;DHT22;38930;52.766;6.884;2023-05-07T15:33:09;18.80;99.90
53045;DHT22;38930;52.766;6.884;2023-05-07T15:35:34;18.80;99.90
53045;DHT22;38930;52.766;6.884;2023-05-07T15:38:00;18.80;99.90
53045;DHT22;38930;52.766;6.884;2023-05-07T15:40:29;18.90;99.90